sensor_id;sensor_type;location;lat;lon;timestamp;P1;durP1;ratioP1;P2;durP2;ratioP2
8281;SDS011;25606;42.686;23.136;2022-07-29T00:00:41;12.07;;;9.43;;
8281;SDS011;25606;42.686;23.136;2022-07-29T00:03:09;12.17;;;9.47;;
8281;SDS011;25606;42.686;23.136;2022-07-29T00:05:39;12.43;;;9.97;;
8281;SDS011;25606;42.686;23.136;2022-07-29T00:08:06;10.37;;;9.27;;
8281;SDS011;25606;42.686;23.136;2022-07-29T00:10:34;10.40;;;9.33;;
8281;SDS011;25606;42.686;23.136;2022-07-29T00:13:01;10.30;;;9.30;;
8281;SDS011;25606;42.686;23.136;2022-07-29T00:15:28;13.47;;;9.30;;
8281;SDS011;25606;42.686;23.136;2022-07-29T00:17:56;10.00;;;9.10;;
8281;SDS011;25606;42.686;23.136;2022-07-29T00:20:23;12.77;;;10.10;;
8281;SDS011;25606;42.686;23.136;2022-07-29T00:22:51;14.20;;;10.43;;
8281;SDS011;25606;42.686;23.136;2022-07-29T00:25:19;17.93;;;10.37;;
8281;SDS011;25606;42.686;23.136;2022-07-29T00:27:46;12.30;;;10.33;;
8281;SDS011;25606;42.686;23.136;2022-07-29T00:30:14;13.97;;;10.90;;
8281;SDS011;25606;42.686;23.136;2022-07-29T00:32:41;13.47;;;11.57;;
8281;SDS011;25606;42.686;23.136;2022-07-29T00:35:08;12.17;;;10.97;;
8281;SDS011;25606;42.686;23.136;2022-07-29T00:37:55;12.17;;;10.70;;
8281;SDS011;25606;42.686;23.136;2022-07-29T00:40:22;14.30;;;11.00;;
8281;SDS011;25606;42.686;23.136;2022-07-29T00:42:50;11.60;;;10.50;;
8281;SDS011;25606;42.686;23.136;2022-07-29T00:45:18;11.77;;;10.57;;
8281;SDS011;25606;42.686;23.136;2022-07-29T00:47:46;13.67;;;10.17;;
8281;SDS011;25606;42.686;23.136;2022-07-29T00:50:14;13.30;;;11.40;;
8281;SDS011;25606;42.686;23.136;2022-07-29T00:52:42;11.63;;;10.43;;
8281;SDS011;25606;42.686;23.136;2022-07-29T00:55:11;12.57;;;9.73;;
8281;SDS011;25606;42.686;23.136;2022-07-29T00:57:38;12.67;;;9.73;;
8281;SDS011;25606;42.686;23.136;2022-07-29T01:00:07;11.27;;;9.17;;
8281;SDS011;25606;42.686;23.136;2022-07-29T01:02:36;11.23;;;9.70;;
8281;SDS011;25606;42.686;23.136;2022-07-29T01:05:03;11.20;;;10.10;;
8281;SDS011;25606;42.686;23.136;2022-07-29T01:07:32;10.47;;;9.37;;
8281;SDS011;25606;42.686;23.136;2022-07-29T01:10:01;10.47;;;9.07;;
8281;SDS011;25606;42.686;23.136;2022-07-29T01:12:30;11.23;;;9.73;;
8281;SDS011;25606;42.686;23.136;2022-07-29T01:14:58;12.00;;;10.80;;
8281;SDS011;25606;42.686;23.136;2022-07-29T01:17:26;11.63;;;10.43;;
8281;SDS011;25606;42.686;23.136;2022-07-29T01:19:56;15.33;;;10.60;;
8281;SDS011;25606;42.686;23.136;2022-07-29T01:22:29;13.13;;;10.87;;
8281;SDS011;25606;42.686;23.136;2022-07-29T01:27:47;12.17;;;10.23;;
8281;SDS011;25606;42.686;23.136;2022-07-29T01:30:20;12.03;;;10.23;;
8281;SDS011;25606;42.686;23.136;2022-07-29T01:32:49;13.87;;;11.07;;
8281;SDS011;25606;42.686;23.136;2022-07-29T01:35:18;11.47;;;10.20;;
8281;SDS011;25606;42.686;23.136;2022-07-29T01:37:48;13.70;;;10.67;;
8281;SDS011;25606;42.686;23.136;2022-07-29T01:40:19;13.07;;;11.67;;
8281;SDS011;25606;42.686;23.136;2022-07-29T01:42:48;12.30;;;11.00;;
8281;SDS011;25606;42.686;23.136;2022-07-29T01:45:17;13.03;;;11.33;;
8281;SDS011;25606;42.686;23.136;2022-07-29T01:47:49;11.27;;;10.17;;
8281;SDS011;25606;42.686;23.136;2022-07-29T01:50:20;12.97;;;10.13;;
8281;SDS011;25606;42.686;23.136;2022-07-29T01:52:52;11.60;;;10.17;;
8281;SDS011;25606;42.686;23.136;2022-07-29T01:55:22;12.53;;;10.87;;
8281;SDS011;25606;42.686;23.136;2022-07-29T01:57:50;11.60;;;9.87;;
8281;SDS011;25606;42.686;23.136;2022-07-29T02:00:18;11.83;;;9.93;;
8281;SDS011;25606;42.686;23.136;2022-07-29T02:02:45;10.97;;;9.87;;
8281;SDS011;25606;42.686;23.136;2022-07-29T02:05:15;11.63;;;10.03;;
8281;SDS011;25606;42.686;23.136;2022-07-29T02:07:44;11.93;;;10.23;;
8281;SDS011;25606;42.686;23.136;2022-07-29T02:10:13;11.77;;;10.57;;
8281;SDS011;25606;42.686;23.136;2022-07-29T02:12:41;13.23;;;10.97;;
8281;SDS011;25606;42.686;23.136;2022-07-29T02:15:09;12.43;;;11.00;;
8281;SDS011;25606;42.686;23.136;2022-07-29T02:17:39;13.87;;;12.40;;
8281;SDS011;25606;42.686;23.136;2022-07-29T02:20:08;16.57;;;12.13;;
8281;SDS011;25606;42.686;23.136;2022-07-29T02:22:39;13.53;;;12.13;;
8281;SDS011;25606;42.686;23.136;2022-07-29T02:25:06;13.10;;;11.03;;
8281;SDS011;25606;42.686;23.136;2022-07-29T02:27:34;14.23;;;12.33;;
8281;SDS011;25606;42.686;23.136;2022-07-29T02:30:03;15.60;;;11.73;;
8281;SDS011;25606;42.686;23.136;2022-07-29T02:32:30;14.30;;;12.30;;
8281;SDS011;25606;42.686;23.136;2022-07-29T02:34:58;14.07;;;12.10;;
8281;SDS011;25606;42.686;23.136;2022-07-29T02:37:26;12.83;;;11.37;;
8281;SDS011;25606;42.686;23.136;2022-07-29T02:39:55;13.43;;;12.00;;
8281;SDS011;25606;42.686;23.136;2022-07-29T02:42:24;13.23;;;11.83;;
8281;SDS011;25606;42.686;23.136;2022-07-29T02:44:53;14.57;;;11.40;;
8281;SDS011;25606;42.686;23.136;2022-07-29T02:47:21;13.03;;;11.63;;
8281;SDS011;25606;42.686;23.136;2022-07-29T02:49:52;15.13;;;13.37;;
8281;SDS011;25606;42.686;23.136;2022-07-29T02:52:22;15.83;;;12.53;;
8281;SDS011;25606;42.686;23.136;2022-07-29T02:54:52;13.27;;;11.97;;
8281;SDS011;25606;42.686;23.136;2022-07-29T02:57:22;13.73;;;11.50;;
8281;SDS011;25606;42.686;23.136;2022-07-29T02:59:50;12.00;;;10.67;;
8281;SDS011;25606;42.686;23.136;2022-07-29T03:02:18;11.33;;;10.20;;
8281;SDS011;25606;42.686;23.136;2022-07-29T03:04:47;12.97;;;10.63;;
8281;SDS011;25606;42.686;23.136;2022-07-29T03:07:15;13.80;;;11.00;;
8281;SDS011;25606;42.686;23.136;2022-07-29T03:09:45;13.90;;;11.93;;
8281;SDS011;25606;42.686;23.136;2022-07-29T03:12:13;15.33;;;12.97;;
8281;SDS011;25606;42.686;23.136;2022-07-29T03:14:42;14.27;;;12.63;;
8281;SDS011;25606;42.686;23.136;2022-07-29T03:17:10;16.80;;;12.77;;
8281;SDS011;25606;42.686;23.136;2022-07-29T03:19:38;15.87;;;13.97;;
8281;SDS011;25606;42.686;23.136;2022-07-29T03:22:05;19.50;;;13.97;;
8281;SDS011;25606;42.686;23.136;2022-07-29T03:24:34;15.20;;;13.60;;
8281;SDS011;25606;42.686;23.136;2022-07-29T03:27:01;17.00;;;14.77;;
8281;SDS011;25606;42.686;23.136;2022-07-29T03:29:29;16.83;;;14.03;;
8281;SDS011;25606;42.686;23.136;2022-07-29T03:31:57;17.03;;;14.23;;
8281;SDS011;25606;42.686;23.136;2022-07-29T03:34:25;17.30;;;14.43;;
8281;SDS011;25606;42.686;23.136;2022-07-29T03:36:52;17.30;;;13.33;;
8281;SDS011;25606;42.686;23.136;2022-07-29T03:39:20;15.53;;;13.17;;
8281;SDS011;25606;42.686;23.136;2022-07-29T03:41:49;15.93;;;13.10;;
8281;SDS011;25606;42.686;23.136;2022-07-29T03:44:19;14.90;;;12.90;;
8281;SDS011;25606;42.686;23.136;2022-07-29T03:46:47;15.67;;;12.77;;
8281;SDS011;25606;42.686;23.136;2022-07-29T03:49:17;16.50;;;13.43;;
8281;SDS011;25606;42.686;23.136;2022-07-29T03:51:44;16.07;;;13.93;;
8281;SDS011;25606;42.686;23.136;2022-07-29T03:54:12;16.13;;;14.17;;
8281;SDS011;25606;42.686;23.136;2022-07-29T03:56:40;17.23;;;14.70;;
8281;SDS011;25606;42.686;23.136;2022-07-29T03:59:11;16.30;;;12.50;;
8281;SDS011;25606;42.686;23.136;2022-07-29T04:01:39;13.60;;;12.20;;
8281;SDS011;25606;42.686;23.136;2022-07-29T04:04:06;17.23;;;12.33;;
8281;SDS011;25606;42.686;23.136;2022-07-29T04:06:39;14.07;;;11.67;;
8281;SDS011;25606;42.686;23.136;2022-07-29T04:09:06;11.60;;;10.50;;
8281;SDS011;25606;42.686;23.136;2022-07-29T04:11:34;10.77;;;9.67;;
8281;SDS011;25606;42.686;23.136;2022-07-29T04:14:02;14.30;;;12.67;;
8281;SDS011;25606;42.686;23.136;2022-07-29T04:16:29;13.00;;;11.63;;
8281;SDS011;25606;42.686;23.136;2022-07-29T04:18:56;15.73;;;12.53;;
8281;SDS011;25606;42.686;23.136;2022-07-29T04:21:24;14.90;;;13.30;;
8281;SDS011;25606;42.686;23.136;2022-07-29T04:23:53;13.43;;;12.00;;
8281;SDS011;25606;42.686;23.136;2022-07-29T04:26:20;13.33;;;12.03;;
8281;SDS011;25606;42.686;23.136;2022-07-29T04:28:47;13.67;;;12.27;;
8281;SDS011;25606;42.686;23.136;2022-07-29T04:31:14;14.63;;;10.90;;
8281;SDS011;25606;42.686;23.136;2022-07-29T04:33:42;13.00;;;11.30;;
8281;SDS011;25606;42.686;23.136;2022-07-29T04:36:09;12.93;;;11.53;;
8281;SDS011;25606;42.686;23.136;2022-07-29T04:38:37;13.20;;;11.80;;
8281;SDS011;25606;42.686;23.136;2022-07-29T04:41:06;13.70;;;11.50;;
8281;SDS011;25606;42.686;23.136;2022-07-29T04:43:33;11.90;;;10.50;;
8281;SDS011;25606;42.686;23.136;2022-07-29T04:46:01;11.80;;;10.33;;
8281;SDS011;25606;42.686;23.136;2022-07-29T04:48:28;13.80;;;12.20;;
8281;SDS011;25606;42.686;23.136;2022-07-29T04:50:55;14.53;;;11.37;;
8281;SDS011;25606;42.686;23.136;2022-07-29T04:53:23;13.13;;;11.73;;
8281;SDS011;25606;42.686;23.136;2022-07-29T04:55:50;14.83;;;12.30;;
8281;SDS011;25606;42.686;23.136;2022-07-29T04:58:19;13.37;;;11.63;;
8281;SDS011;25606;42.686;23.136;2022-07-29T05:00:48;15.60;;;13.03;;
8281;SDS011;25606;42.686;23.136;2022-07-29T05:03:15;16.40;;;12.47;;
8281;SDS011;25606;42.686;23.136;2022-07-29T05:05:42;15.70;;;13.73;;
8281;SDS011;25606;42.686;23.136;2022-07-29T05:08:10;13.23;;;11.90;;
8281;SDS011;25606;42.686;23.136;2022-07-29T05:10:37;22.73;;;11.73;;
8281;SDS011;25606;42.686;23.136;2022-07-29T05:13:04;22.10;;;12.47;;
8281;SDS011;25606;42.686;23.136;2022-07-29T05:15:34;12.60;;;11.13;;
8281;SDS011;25606;42.686;23.136;2022-07-29T05:18:01;12.33;;;11.10;;
8281;SDS011;25606;42.686;23.136;2022-07-29T05:20:29;12.47;;;11.17;;
8281;SDS011;25606;42.686;23.136;2022-07-29T05:22:56;19.00;;;11.13;;
8281;SDS011;25606;42.686;23.136;2022-07-29T05:25:24;13.83;;;12.43;;
8281;SDS011;25606;42.686;23.136;2022-07-29T05:27:52;14.77;;;12.00;;
8281;SDS011;25606;42.686;23.136;2022-07-29T05:30:19;13.60;;;12.20;;
8281;SDS011;25606;42.686;23.136;2022-07-29T05:32:48;13.67;;;12.27;;
8281;SDS011;25606;42.686;23.136;2022-07-29T05:35:15;17.13;;;13.03;;
8281;SDS011;25606;42.686;23.136;2022-07-29T05:37:43;12.83;;;11.53;;
8281;SDS011;25606;42.686;23.136;2022-07-29T05:40:10;13.27;;;11.93;;
8281;SDS011;25606;42.686;23.136;2022-07-29T05:42:37;12.93;;;11.63;;
8281;SDS011;25606;42.686;23.136;2022-07-29T05:45:05;17.40;;;12.97;;
8281;SDS011;25606;42.686;23.136;2022-07-29T05:47:32;19.63;;;11.63;;
8281;SDS011;25606;42.686;23.136;2022-07-29T05:50:01;16.57;;;12.13;;
8281;SDS011;25606;42.686;23.136;2022-07-29T05:52:29;12.17;;;10.83;;
8281;SDS011;25606;42.686;23.136;2022-07-29T05:54:56;11.63;;;10.43;;
8281;SDS011;25606;42.686;23.136;2022-07-29T05:57:24;11.87;;;10.67;;
8281;SDS011;25606;42.686;23.136;2022-07-29T05:59:51;11.83;;;10.73;;
8281;SDS011;25606;42.686;23.136;2022-07-29T06:02:19;12.43;;;10.60;;
8281;SDS011;25606;42.686;23.136;2022-07-29T06:04:46;14.23;;;11.30;;
8281;SDS011;25606;42.686;23.136;2022-07-29T06:07:15;12.70;;;11.50;;
8281;SDS011;25606;42.686;23.136;2022-07-29T06:09:43;12.67;;;11.40;;
8281;SDS011;25606;42.686;23.136;2022-07-29T06:12:10;14.07;;;12.20;;
8281;SDS011;25606;42.686;23.136;2022-07-29T06:14:37;12.37;;;11.17;;
8281;SDS011;25606;42.686;23.136;2022-07-29T06:17:05;13.57;;;12.27;;
8281;SDS011;25606;42.686;23.136;2022-07-29T06:19:33;12.20;;;11.00;;
8281;SDS011;25606;42.686;23.136;2022-07-29T06:22:01;14.70;;;11.70;;
8281;SDS011;25606;42.686;23.136;2022-07-29T06:24:29;12.63;;;10.43;;
8281;SDS011;25606;42.686;23.136;2022-07-29T06:26:57;12.33;;;10.97;;
8281;SDS011;25606;42.686;23.136;2022-07-29T06:29:24;12.13;;;9.97;;
8281;SDS011;25606;42.686;23.136;2022-07-29T06:31:51;11.10;;;10.03;;
8281;SDS011;25606;42.686;23.136;2022-07-29T06:34:18;11.67;;;10.47;;
8281;SDS011;25606;42.686;23.136;2022-07-29T06:36:46;14.67;;;12.50;;
8281;SDS011;25606;42.686;23.136;2022-07-29T06:39:14;11.87;;;10.67;;
8281;SDS011;25606;42.686;23.136;2022-07-29T06:41:45;11.37;;;10.27;;
8281;SDS011;25606;42.686;23.136;2022-07-29T06:44:13;11.70;;;10.40;;
8281;SDS011;25606;42.686;23.136;2022-07-29T06:46:40;10.13;;;8.97;;
8281;SDS011;25606;42.686;23.136;2022-07-29T06:49:08;11.53;;;9.27;;
8281;SDS011;25606;42.686;23.136;2022-07-29T06:51:37;10.83;;;9.40;;
8281;SDS011;25606;42.686;23.136;2022-07-29T06:54:04;11.43;;;9.17;;
8281;SDS011;25606;42.686;23.136;2022-07-29T06:56:33;9.00;;;7.38;;
8281;SDS011;25606;42.686;23.136;2022-07-29T06:59:03;20.73;;;8.77;;
8281;SDS011;25606;42.686;23.136;2022-07-29T07:01:30;9.03;;;8.00;;
8281;SDS011;25606;42.686;23.136;2022-07-29T07:03:57;11.73;;;8.45;;
8281;SDS011;25606;42.686;23.136;2022-07-29T07:06:25;8.07;;;7.22;;
8281;SDS011;25606;42.686;23.136;2022-07-29T07:08:52;9.30;;;8.40;;
8281;SDS011;25606;42.686;23.136;2022-07-29T07:11:19;13.27;;;8.80;;
8281;SDS011;25606;42.686;23.136;2022-07-29T07:13:46;12.85;;;8.63;;
8281;SDS011;25606;42.686;23.136;2022-07-29T07:16:15;10.50;;;9.45;;
8281;SDS011;25606;42.686;23.136;2022-07-29T07:18:42;10.48;;;9.32;;
8281;SDS011;25606;42.686;23.136;2022-07-29T07:21:10;13.00;;;9.63;;
8281;SDS011;25606;42.686;23.136;2022-07-29T07:23:37;10.48;;;9.30;;
8281;SDS011;25606;42.686;23.136;2022-07-29T07:26:04;10.82;;;8.88;;
8281;SDS011;25606;42.686;23.136;2022-07-29T07:28:31;9.32;;;8.32;;
8281;SDS011;25606;42.686;23.136;2022-07-29T07:30:59;10.65;;;8.90;;
8281;SDS011;25606;42.686;23.136;2022-07-29T07:33:27;10.05;;;8.88;;
8281;SDS011;25606;42.686;23.136;2022-07-29T07:35:54;8.90;;;7.95;;
8281;SDS011;25606;42.686;23.136;2022-07-29T07:38:22;11.07;;;7.75;;
8281;SDS011;25606;42.686;23.136;2022-07-29T07:40:49;8.95;;;7.75;;
8281;SDS011;25606;42.686;23.136;2022-07-29T07:43:16;10.63;;;7.95;;
8281;SDS011;25606;42.686;23.136;2022-07-29T07:45:43;8.85;;;7.18;;
8281;SDS011;25606;42.686;23.136;2022-07-29T07:48:11;8.38;;;7.25;;
8281;SDS011;25606;42.686;23.136;2022-07-29T07:50:39;7.85;;;7.15;;
8281;SDS011;25606;42.686;23.136;2022-07-29T07:53:07;8.07;;;6.65;;
8281;SDS011;25606;42.686;23.136;2022-07-29T07:55:39;8.25;;;6.82;;
8281;SDS011;25606;42.686;23.136;2022-07-29T07:58:06;8.18;;;6.65;;
8281;SDS011;25606;42.686;23.136;2022-07-29T08:00:33;8.73;;;6.32;;
8281;SDS011;25606;42.686;23.136;2022-07-29T08:03:01;8.43;;;6.60;;
8281;SDS011;25606;42.686;23.136;2022-07-29T08:05:28;9.52;;;6.28;;
8281;SDS011;25606;42.686;23.136;2022-07-29T08:07:57;13.50;;;7.18;;
8281;SDS011;25606;42.686;23.136;2022-07-29T08:10:24;6.60;;;5.85;;
8281;SDS011;25606;42.686;23.136;2022-07-29T08:13:09;8.32;;;5.55;;
8281;SDS011;25606;42.686;23.136;2022-07-29T08:15:38;8.50;;;6.25;;
8281;SDS011;25606;42.686;23.136;2022-07-29T08:18:06;7.07;;;5.93;;
8281;SDS011;25606;42.686;23.136;2022-07-29T08:20:33;8.60;;;6.15;;
8281;SDS011;25606;42.686;23.136;2022-07-29T08:23:03;7.47;;;6.30;;
8281;SDS011;25606;42.686;23.136;2022-07-29T08:25:31;6.15;;;5.60;;
8281;SDS011;25606;42.686;23.136;2022-07-29T08:27:59;13.20;;;7.60;;
8281;SDS011;25606;42.686;23.136;2022-07-29T08:30:26;10.35;;;7.47;;
8281;SDS011;25606;42.686;23.136;2022-07-29T08:32:53;11.23;;;7.50;;
8281;SDS011;25606;42.686;23.136;2022-07-29T08:35:20;11.80;;;7.10;;
8281;SDS011;25606;42.686;23.136;2022-07-29T08:37:48;9.10;;;6.03;;
8281;SDS011;25606;42.686;23.136;2022-07-29T08:40:16;12.07;;;6.90;;
8281;SDS011;25606;42.686;23.136;2022-07-29T08:42:44;8.32;;;6.85;;
8281;SDS011;25606;42.686;23.136;2022-07-29T08:45:12;7.43;;;6.13;;
8281;SDS011;25606;42.686;23.136;2022-07-29T08:47:39;10.10;;;6.65;;
8281;SDS011;25606;42.686;23.136;2022-07-29T08:50:07;6.22;;;5.72;;
8281;SDS011;25606;42.686;23.136;2022-07-29T08:52:36;6.78;;;5.75;;
8281;SDS011;25606;42.686;23.136;2022-07-29T08:55:04;6.88;;;6.20;;
8281;SDS011;25606;42.686;23.136;2022-07-29T08:57:34;6.63;;;5.95;;
8281;SDS011;25606;42.686;23.136;2022-07-29T09:00:02;10.43;;;6.10;;
8281;SDS011;25606;42.686;23.136;2022-07-29T09:02:35;6.07;;;5.45;;
8281;SDS011;25606;42.686;23.136;2022-07-29T09:05:02;6.95;;;6.20;;
8281;SDS011;25606;42.686;23.136;2022-07-29T09:07:31;6.75;;;6.13;;
8281;SDS011;25606;42.686;23.136;2022-07-29T09:10:00;6.18;;;5.50;;
8281;SDS011;25606;42.686;23.136;2022-07-29T09:12:28;6.35;;;5.70;;
8281;SDS011;25606;42.686;23.136;2022-07-29T09:14:57;6.28;;;5.70;;
8281;SDS011;25606;42.686;23.136;2022-07-29T09:17:41;10.57;;;6.97;;
8281;SDS011;25606;42.686;23.136;2022-07-29T09:20:09;5.80;;;5.32;;
8281;SDS011;25606;42.686;23.136;2022-07-29T09:22:37;6.35;;;5.57;;
8281;SDS011;25606;42.686;23.136;2022-07-29T09:25:05;6.88;;;5.43;;
8281;SDS011;25606;42.686;23.136;2022-07-29T09:27:32;5.72;;;5.20;;
8281;SDS011;25606;42.686;23.136;2022-07-29T09:30:06;6.47;;;5.45;;
8281;SDS011;25606;42.686;23.136;2022-07-29T09:35:20;7.88;;;5.63;;
8281;SDS011;25606;42.686;23.136;2022-07-29T09:37:48;8.65;;;5.55;;
8281;SDS011;25606;42.686;23.136;2022-07-29T09:40:16;8.20;;;5.13;;
8281;SDS011;25606;42.686;23.136;2022-07-29T09:42:44;8.02;;;5.72;;
8281;SDS011;25606;42.686;23.136;2022-07-29T09:45:13;9.55;;;5.85;;
8281;SDS011;25606;42.686;23.136;2022-07-29T09:47:58;6.13;;;5.30;;
8281;SDS011;25606;42.686;23.136;2022-07-29T09:50:35;6.82;;;5.53;;
8281;SDS011;25606;42.686;23.136;2022-07-29T09:53:08;6.28;;;5.10;;
8281;SDS011;25606;42.686;23.136;2022-07-29T09:55:46;6.25;;;5.18;;
8281;SDS011;25606;42.686;23.136;2022-07-29T09:58:20;7.85;;;5.70;;
8281;SDS011;25606;42.686;23.136;2022-07-29T10:00:50;5.50;;;5.00;;
8281;SDS011;25606;42.686;23.136;2022-07-29T10:03:18;6.20;;;5.60;;
8281;SDS011;25606;42.686;23.136;2022-07-29T10:05:46;5.85;;;4.95;;
8281;SDS011;25606;42.686;23.136;2022-07-29T10:08:13;12.75;;;5.45;;
8281;SDS011;25606;42.686;23.136;2022-07-29T10:11:05;8.52;;;5.55;;
8281;SDS011;25606;42.686;23.136;2022-07-29T10:13:35;6.65;;;5.28;;
8281;SDS011;25606;42.686;23.136;2022-07-29T10:16:04;6.10;;;5.10;;
8281;SDS011;25606;42.686;23.136;2022-07-29T10:18:42;7.43;;;5.05;;
8281;SDS011;25606;42.686;23.136;2022-07-29T10:21:13;8.77;;;5.72;;
8281;SDS011;25606;42.686;23.136;2022-07-29T10:23:40;9.40;;;5.82;;
8281;SDS011;25606;42.686;23.136;2022-07-29T10:26:07;5.82;;;5.18;;
8281;SDS011;25606;42.686;23.136;2022-07-29T10:28:37;6.35;;;5.00;;
8281;SDS011;25606;42.686;23.136;2022-07-29T10:31:06;8.00;;;5.05;;
8281;SDS011;25606;42.686;23.136;2022-07-29T10:33:39;7.40;;;5.68;;
8281;SDS011;25606;42.686;23.136;2022-07-29T10:38:55;6.45;;;5.60;;
8281;SDS011;25606;42.686;23.136;2022-07-29T10:41:39;7.38;;;5.70;;
8281;SDS011;25606;42.686;23.136;2022-07-29T10:44:15;6.68;;;5.53;;
8281;SDS011;25606;42.686;23.136;2022-07-29T10:46:44;7.40;;;5.18;;
8281;SDS011;25606;42.686;23.136;2022-07-29T10:49:12;6.40;;;5.40;;
8281;SDS011;25606;42.686;23.136;2022-07-29T10:51:53;6.45;;;5.50;;
8281;SDS011;25606;42.686;23.136;2022-07-29T10:54:35;7.90;;;5.25;;
8281;SDS011;25606;42.686;23.136;2022-07-29T10:57:10;8.63;;;5.43;;
8281;SDS011;25606;42.686;23.136;2022-07-29T10:59:37;12.63;;;5.78;;
8281;SDS011;25606;42.686;23.136;2022-07-29T11:05:01;7.40;;;5.93;;
8281;SDS011;25606;42.686;23.136;2022-07-29T11:07:30;7.35;;;5.53;;
8281;SDS011;25606;42.686;23.136;2022-07-29T11:12:46;9.30;;;6.25;;
8281;SDS011;25606;42.686;23.136;2022-07-29T11:15:14;10.68;;;6.53;;
8281;SDS011;25606;42.686;23.136;2022-07-29T11:18:02;9.07;;;6.47;;
8281;SDS011;25606;42.686;23.136;2022-07-29T11:20:32;14.88;;;6.95;;
8281;SDS011;25606;42.686;23.136;2022-07-29T11:23:00;10.07;;;6.63;;
8281;SDS011;25606;42.686;23.136;2022-07-29T11:25:27;9.88;;;6.93;;
8281;SDS011;25606;42.686;23.136;2022-07-29T11:28:07;8.27;;;6.70;;
8281;SDS011;25606;42.686;23.136;2022-07-29T11:30:48;7.63;;;6.20;;
8281;SDS011;25606;42.686;23.136;2022-07-29T11:33:31;7.55;;;6.03;;
8281;SDS011;25606;42.686;23.136;2022-07-29T11:36:09;10.45;;;6.10;;
8281;SDS011;25606;42.686;23.136;2022-07-29T11:38:37;10.77;;;6.55;;
8281;SDS011;25606;42.686;23.136;2022-07-29T11:41:24;7.90;;;6.13;;
8281;SDS011;25606;42.686;23.136;2022-07-29T11:43:55;8.85;;;6.75;;
8281;SDS011;25606;42.686;23.136;2022-07-29T11:46:43;10.18;;;6.43;;
8281;SDS011;25606;42.686;23.136;2022-07-29T11:49:11;12.50;;;7.05;;
8281;SDS011;25606;42.686;23.136;2022-07-29T11:51:41;13.38;;;7.03;;
8281;SDS011;25606;42.686;23.136;2022-07-29T11:54:08;15.32;;;7.65;;
8281;SDS011;25606;42.686;23.136;2022-07-29T11:56:43;12.57;;;7.63;;
8281;SDS011;25606;42.686;23.136;2022-07-29T11:59:14;10.15;;;7.38;;
8281;SDS011;25606;42.686;23.136;2022-07-29T12:01:51;9.40;;;6.80;;
8281;SDS011;25606;42.686;23.136;2022-07-29T12:04:21;6.55;;;5.85;;
8281;SDS011;25606;42.686;23.136;2022-07-29T12:06:50;7.68;;;6.18;;
8281;SDS011;25606;42.686;23.136;2022-07-29T12:09:18;7.78;;;6.25;;
8281;SDS011;25606;42.686;23.136;2022-07-29T12:11:45;8.90;;;6.03;;
8281;SDS011;25606;42.686;23.136;2022-07-29T12:14:24;8.77;;;5.82;;
8281;SDS011;25606;42.686;23.136;2022-07-29T12:16:52;8.02;;;6.10;;
8281;SDS011;25606;42.686;23.136;2022-07-29T12:19:20;11.68;;;6.47;;
8281;SDS011;25606;42.686;23.136;2022-07-29T12:21:48;8.05;;;6.35;;
8281;SDS011;25606;42.686;23.136;2022-07-29T12:24:17;7.78;;;6.35;;
8281;SDS011;25606;42.686;23.136;2022-07-29T12:26:49;8.25;;;6.50;;
8281;SDS011;25606;42.686;23.136;2022-07-29T12:29:19;7.00;;;6.25;;
8281;SDS011;25606;42.686;23.136;2022-07-29T12:31:50;9.45;;;6.00;;
8281;SDS011;25606;42.686;23.136;2022-07-29T12:34:19;9.95;;;6.90;;
8281;SDS011;25606;42.686;23.136;2022-07-29T12:36:47;9.02;;;6.07;;
8281;SDS011;25606;42.686;23.136;2022-07-29T12:39:15;9.77;;;6.63;;
8281;SDS011;25606;42.686;23.136;2022-07-29T12:41:44;8.57;;;6.20;;
8281;SDS011;25606;42.686;23.136;2022-07-29T12:44:11;9.07;;;6.32;;
8281;SDS011;25606;42.686;23.136;2022-07-29T12:46:39;9.23;;;6.50;;
8281;SDS011;25606;42.686;23.136;2022-07-29T12:49:09;12.43;;;7.63;;
8281;SDS011;25606;42.686;23.136;2022-07-29T12:51:37;12.27;;;7.18;;
8281;SDS011;25606;42.686;23.136;2022-07-29T12:54:06;14.93;;;7.75;;
8281;SDS011;25606;42.686;23.136;2022-07-29T12:56:39;10.02;;;6.68;;
8281;SDS011;25606;42.686;23.136;2022-07-29T12:59:19;10.52;;;7.20;;
8281;SDS011;25606;42.686;23.136;2022-07-29T13:01:49;12.50;;;7.38;;
8281;SDS011;25606;42.686;23.136;2022-07-29T13:04:23;10.98;;;6.70;;
8281;SDS011;25606;42.686;23.136;2022-07-29T13:06:58;7.18;;;6.50;;
8281;SDS011;25606;42.686;23.136;2022-07-29T13:09:35;7.00;;;6.15;;
8281;SDS011;25606;42.686;23.136;2022-07-29T13:12:05;7.57;;;6.82;;
8281;SDS011;25606;42.686;23.136;2022-07-29T13:14:35;8.50;;;7.63;;
8281;SDS011;25606;42.686;23.136;2022-07-29T13:17:04;7.70;;;6.93;;
8281;SDS011;25606;42.686;23.136;2022-07-29T13:19:32;10.23;;;6.75;;
8281;SDS011;25606;42.686;23.136;2022-07-29T13:21:59;8.85;;;6.78;;
8281;SDS011;25606;42.686;23.136;2022-07-29T13:24:27;12.00;;;7.75;;
8281;SDS011;25606;42.686;23.136;2022-07-29T13:26:54;8.50;;;6.93;;
8281;SDS011;25606;42.686;23.136;2022-07-29T13:29:21;7.75;;;6.28;;
8281;SDS011;25606;42.686;23.136;2022-07-29T13:31:50;8.68;;;6.32;;
8281;SDS011;25606;42.686;23.136;2022-07-29T13:34:17;7.20;;;6.07;;
8281;SDS011;25606;42.686;23.136;2022-07-29T13:36:46;6.57;;;5.72;;
8281;SDS011;25606;42.686;23.136;2022-07-29T13:39:13;7.97;;;5.90;;
8281;SDS011;25606;42.686;23.136;2022-07-29T13:41:41;6.85;;;6.03;;
8281;SDS011;25606;42.686;23.136;2022-07-29T13:44:08;9.05;;;6.32;;
8281;SDS011;25606;42.686;23.136;2022-07-29T13:46:35;9.40;;;6.43;;
8281;SDS011;25606;42.686;23.136;2022-07-29T13:49:04;14.73;;;7.40;;
8281;SDS011;25606;42.686;23.136;2022-07-29T13:51:31;6.75;;;5.47;;
8281;SDS011;25606;42.686;23.136;2022-07-29T13:53:58;9.48;;;6.82;;
8281;SDS011;25606;42.686;23.136;2022-07-29T13:56:25;9.48;;;6.55;;
8281;SDS011;25606;42.686;23.136;2022-07-29T13:58:52;10.10;;;6.25;;
8281;SDS011;25606;42.686;23.136;2022-07-29T14:01:20;11.00;;;6.97;;
8281;SDS011;25606;42.686;23.136;2022-07-29T14:03:47;10.85;;;7.72;;
8281;SDS011;25606;42.686;23.136;2022-07-29T14:06:16;10.32;;;7.40;;
8281;SDS011;25606;42.686;23.136;2022-07-29T14:08:43;7.65;;;6.68;;
8281;SDS011;25606;42.686;23.136;2022-07-29T14:11:10;8.95;;;7.10;;
8281;SDS011;25606;42.686;23.136;2022-07-29T14:13:37;8.80;;;7.47;;
8281;SDS011;25606;42.686;23.136;2022-07-29T14:16:05;8.07;;;7.25;;
8281;SDS011;25606;42.686;23.136;2022-07-29T14:18:33;7.72;;;7.00;;
8281;SDS011;25606;42.686;23.136;2022-07-29T14:21:00;8.38;;;6.63;;
8281;SDS011;25606;42.686;23.136;2022-07-29T14:23:29;7.60;;;6.90;;
8281;SDS011;25606;42.686;23.136;2022-07-29T14:25:57;7.43;;;6.70;;
8281;SDS011;25606;42.686;23.136;2022-07-29T14:28:24;6.70;;;5.93;;
8281;SDS011;25606;42.686;23.136;2022-07-29T14:30:51;7.10;;;6.45;;
8281;SDS011;25606;42.686;23.136;2022-07-29T14:33:19;9.60;;;6.70;;
8281;SDS011;25606;42.686;23.136;2022-07-29T14:35:46;9.95;;;6.80;;
8281;SDS011;25606;42.686;23.136;2022-07-29T14:38:13;8.52;;;5.80;;
8281;SDS011;25606;42.686;23.136;2022-07-29T14:40:42;13.23;;;7.45;;
8281;SDS011;25606;42.686;23.136;2022-07-29T14:43:09;10.45;;;7.15;;
8281;SDS011;25606;42.686;23.136;2022-07-29T14:45:36;8.80;;;6.30;;
8281;SDS011;25606;42.686;23.136;2022-07-29T14:48:08;8.05;;;6.72;;
8281;SDS011;25606;42.686;23.136;2022-07-29T14:50:37;6.80;;;5.82;;
8281;SDS011;25606;42.686;23.136;2022-07-29T14:53:05;6.18;;;5.57;;
8281;SDS011;25606;42.686;23.136;2022-07-29T14:55:33;5.85;;;5.25;;
8281;SDS011;25606;42.686;23.136;2022-07-29T14:58:01;7.20;;;6.03;;